Airport View

Enter AWOS ICAO identifier for current METAR.

ex. KFNL

KICL 100325Z AUTO 00000KT 10SM CLR 20/20 A2997 RMK AO2

10 Jul 2020 03:29

Frequency: 132.025

Phone: 712-542-3345

Other Area AWOS: KSDA - KRDK - KCSQ - KAFK

TAF KOFF 100200Z 1002/1108 VRB06KT 9999 SKC QNH2993INS BECMG 1009/1010 VRB04KT 8000 BR SKC QNH3002INS BECMG 1013/1014 20009KT 9999 NSW FEW040 QNH2994INS WND VRB06KT AFT 1101 TX32/1020Z TN20/1010Z